Time;durP1;ratioP1;P1;durP2;ratioP2;P2;SDS_P1;SDS_P2;PMS_P1;PMS_P2;Temp;Humidity;BMP_temperature;BMP_pressure;BME280_temperature;BME280_humidity;BME280_pressure;Samples;Min_cycle;Max_cycle;Signal;HPM_P1;HPM_P2
2021/09/02 00:02:03;;;;;;;17.00;8.65;;;18.10;99.90;;;;;;5071481;28;20385;-80
2021/09/02 00:04:29;;;;;;;14.13;8.10;;;18.20;99.90;;;;;;5071133;28;20017;-81
2021/09/02 00:06:57;;;;;;;16.10;8.13;;;18.20;99.90;;;;;;5071510;28;20029;-81
2021/09/02 00:09:22;;;;;;;16.98;7.85;;;18.20;99.90;;;;;;5068244;28;20093;-79
2021/09/02 00:11:48;;;;;;;14.88;8.00;;;18.20;99.90;;;;;;5070389;28;20058;-80
2021/09/02 00:14:14;;;;;;;16.08;8.75;;;18.20;99.90;;;;;;5070870;28;20477;-81
2021/09/02 00:16:41;;;;;;;19.77;9.23;;;18.20;99.90;;;;;;5052937;28;20027;-80
2021/09/02 00:19:07;;;;;;;16.23;8.68;;;18.20;99.90;;;;;;5071600;28;20025;-80
2021/09/02 00:21:32;;;;;;;16.52;8.02;;;18.20;99.90;;;;;;5069402;28;20066;-81
2021/09/02 00:23:58;;;;;;;20.88;8.70;;;18.30;99.90;;;;;;5052661;28;20024;-79
2021/09/02 00:26:24;;;;;;;19.05;8.95;;;18.20;99.90;;;;;;5069711;28;20742;-80
2021/09/02 00:28:49;;;;;;;18.58;9.80;;;18.20;99.90;;;;;;5068939;28;20031;-81
2021/09/02 00:31:15;;;;;;;16.52;8.90;;;18.20;99.90;;;;;;5052165;28;20063;-81
2021/09/02 00:33:42;;;;;;;17.38;9.90;;;18.30;99.90;;;;;;5068735;28;20016;-81
2021/09/02 00:36:07;;;;;;;19.58;10.10;;;18.30;99.90;;;;;;5070633;28;20046;-79
2021/09/02 00:38:33;;;;;;;16.52;10.27;;;18.20;99.90;;;;;;5067284;28;20039;-79
2021/09/02 00:40:59;;;;;;;19.38;10.43;;;18.20;99.90;;;;;;5070225;28;20027;-81
2021/09/02 00:43:27;;;;;;;16.55;10.00;;;18.20;99.90;;;;;;5070304;28;20516;-79
2021/09/02 00:45:55;;;;;;;18.27;9.93;;;18.20;99.90;;;;;;5070311;28;20020;-81
2021/09/02 00:48:21;;;;;;;19.52;9.60;;;18.20;99.90;;;;;;5069746;28;20024;-79
2021/09/02 00:50:48;;;;;;;16.30;10.18;;;18.20;99.90;;;;;;5070750;28;20469;-79
2021/09/02 00:53:14;;;;;;;17.75;9.88;;;18.10;99.90;;;;;;5069740;28;20027;-80
2021/09/02 00:55:41;;;;;;;17.20;10.30;;;18.20;99.90;;;;;;5053585;28;20020;-80
2021/09/02 00:58:07;;;;;;;14.65;10.30;;;18.20;99.90;;;;;;5057609;28;20027;-80
2021/09/02 01:00:32;;;;;;;15.38;9.60;;;18.20;99.90;;;;;;5076245;28;20024;-80
2021/09/02 01:02:58;;;;;;;17.75;10.95;;;18.20;99.90;;;;;;5075967;28;20370;-80
2021/09/02 01:05:26;;;;;;;18.75;11.00;;;18.20;99.90;;;;;;5075594;28;20031;-80
2021/09/02 01:07:53;;;;;;;21.50;10.80;;;18.20;99.90;;;;;;5074294;28;20020;-80
2021/09/02 01:10:19;;;;;;;19.63;11.25;;;18.20;99.90;;;;;;5073426;28;20032;-80
2021/09/02 01:12:48;;;;;;;20.15;12.10;;;18.20;99.90;;;;;;5075431;28;20146;-81
2021/09/02 01:15:15;;;;;;;21.05;11.13;;;18.20;99.90;;;;;;5074944;28;20016;-80
2021/09/02 01:17:42;;;;;;;18.40;10.90;;;18.10;99.90;;;;;;5057454;28;20017;-81
2021/09/02 01:20:10;;;;;;;22.17;11.30;;;18.10;99.90;;;;;;5076312;28;20427;-79
2021/09/02 01:22:36;;;;;;;18.52;10.63;;;18.10;99.90;;;;;;5057618;28;20090;-81
2021/09/02 01:25:05;;;;;;;18.63;11.32;;;18.10;99.90;;;;;;5074424;28;20039;-80
2021/09/02 01:27:31;;;;;;;21.58;10.55;;;18.20;99.90;;;;;;5073835;28;20801;-81
2021/09/02 01:29:58;;;;;;;19.30;10.77;;;18.10;99.90;;;;;;5079075;28;20669;-78
2021/09/02 01:32:33;;;;;;;18.35;10.75;;;18.10;99.90;;;;;;5078225;28;20029;-80
2021/09/02 01:35:00;;;;;;;18.70;11.88;;;18.10;99.90;;;;;;5075340;28;20028;-81
2021/09/02 01:37:35;;;;;;;20.73;11.38;;;18.00;99.90;;;;;;5075252;28;20055;-79
2021/09/02 01:40:01;;;;;;;15.50;9.70;;;18.00;99.90;;;;;;5075116;28;20438;-80
2021/09/02 01:42:26;;;;;;;19.60;11.48;;;18.00;99.90;;;;;;5072885;28;20071;-80
2021/09/02 01:44:52;;;;;;;19.50;10.50;;;18.00;99.90;;;;;;5074884;28;20016;-78
2021/09/02 01:47:21;;;;;;;16.83;10.10;;;18.00;99.90;;;;;;5072584;28;20028;-81
2021/09/02 01:49:47;;;;;;;18.20;10.02;;;18.00;99.90;;;;;;5075737;28;20024;-80
2021/09/02 01:52:13;;;;;;;18.70;10.95;;;18.00;99.90;;;;;;5075048;28;20028;-81
2021/09/02 01:54:38;;;;;;;18.90;10.73;;;18.00;99.90;;;;;;5056812;28;20637;-81
2021/09/02 01:57:08;;;;;;;14.55;10.55;;;18.00;99.90;;;;;;5073795;28;20024;-80
2021/09/02 01:59:34;;;;;;;18.60;11.00;;;18.00;99.90;;;;;;5074973;28;20081;-82
2021/09/02 02:02:01;;;;;;;20.67;11.70;;;18.00;99.90;;;;;;5074978;28;20033;-81
2021/09/02 02:04:27;;;;;;;18.88;10.40;;;17.90;99.90;;;;;;5075212;28;20021;-80
2021/09/02 02:06:53;;;;;;;14.60;10.10;;;17.90;99.90;;;;;;5073873;28;20060;-79
2021/09/02 02:09:18;;;;;;;16.25;8.98;;;17.90;99.90;;;;;;5072684;28;20033;-81
2021/09/02 02:11:44;;;;;;;15.77;8.98;;;17.90;99.90;;;;;;5056817;28;20077;-81
2021/09/02 02:14:11;;;;;;;18.65;9.95;;;18.00;99.90;;;;;;5073339;28;20029;-79
2021/09/02 02:16:37;;;;;;;14.32;9.00;;;18.00;99.90;;;;;;5065114;28;20350;-82
2021/09/02 02:19:03;;;;;;;17.65;9.60;;;17.90;99.90;;;;;;5070291;28;20070;-80
2021/09/02 02:21:28;;;;;;;19.58;10.60;;;18.00;99.90;;;;;;5074169;28;20032;-81
2021/09/02 02:23:54;;;;;;;18.42;9.38;;;18.00;99.90;;;;;;5074101;28;20449;-81
2021/09/02 02:26:20;;;;;;;18.25;9.57;;;18.00;99.90;;;;;;5074930;28;20029;-81
2021/09/02 02:28:46;;;;;;;17.05;10.65;;;18.00;99.90;;;;;;5072602;28;20032;-81
2021/09/02 02:31:12;;;;;;;17.08;9.68;;;18.00;99.90;;;;;;5074150;28;20028;-81
2021/09/02 02:33:39;;;;;;;15.57;9.82;;;18.00;99.90;;;;;;5073942;28;20066;-81
2021/09/02 02:36:05;;;;;;;17.25;10.05;;;18.00;99.90;;;;;;5056767;28;20024;-81
2021/09/02 02:38:31;;;;;;;16.63;10.15;;;18.00;99.90;;;;;;5073894;28;20447;-81
2021/09/02 02:40:57;;;;;;;16.42;11.45;;;17.90;99.90;;;;;;5074289;28;20032;-79
2021/09/02 02:43:22;;;;;;;21.15;11.48;;;17.70;99.90;;;;;;5074020;28;20032;-81
2021/09/02 02:45:49;;;;;;;19.35;11.45;;;17.70;99.90;;;;;;5074412;28;20477;-81
2021/09/02 02:48:15;;;;;;;16.27;10.00;;;17.80;99.90;;;;;;5068683;28;20063;-80
2021/09/02 02:50:42;;;;;;;20.10;11.85;;;17.80;99.90;;;;;;5072621;28;20024;-81
2021/09/02 02:53:07;;;;;;;20.13;11.18;;;17.70;99.90;;;;;;5072059;28;20115;-81
2021/09/02 02:55:33;;;;;;;19.90;11.45;;;17.80;99.90;;;;;;5055789;28;20116;-81
2021/09/02 02:57:59;;;;;;;18.70;12.00;;;17.80;99.90;;;;;;5073311;28;20381;-80
2021/09/02 03:00:24;;;;;;;18.42;10.98;;;17.80;99.90;;;;;;5073781;28;20520;-80
2021/09/02 03:02:50;;;;;;;17.33;10.80;;;17.80;99.90;;;;;;5073322;28;20116;-80
2021/09/02 03:05:16;;;;;;;16.90;10.82;;;17.90;99.90;;;;;;5073480;28;20532;-80
2021/09/02 03:07:41;;;;;;;17.00;10.63;;;17.90;99.90;;;;;;5072109;28;20028;-80
2021/09/02 03:10:08;;;;;;;18.85;11.68;;;17.90;99.90;;;;;;5072455;28;20025;-81
2021/09/02 03:12:34;;;;;;;20.38;11.90;;;17.80;99.90;;;;;;5074010;28;20028;-80
2021/09/02 03:15:02;;;;;;;22.63;11.52;;;17.80;99.90;;;;;;5073044;28;20023;-81
2021/09/02 03:17:27;;;;;;;22.55;12.55;;;17.80;99.90;;;;;;5056620;28;20086;-81
2021/09/02 03:19:53;;;;;;;21.73;12.90;;;17.80;99.90;;;;;;5052310;28;20017;-80
2021/09/02 03:22:19;;;;;;;21.63;12.98;;;17.70;99.90;;;;;;5072646;28;20110;-81
2021/09/02 03:24:45;;;;;;;19.08;11.98;;;17.70;99.90;;;;;;5072937;28;20103;-79
2021/09/02 03:27:10;;;;;;;17.33;11.48;;;17.80;99.90;;;;;;5072748;28;20060;-77
2021/09/02 03:29:36;;;;;;;20.42;11.77;;;17.70;99.90;;;;;;5071954;28;20480;-80
2021/09/02 03:32:02;;;;;;;23.20;12.07;;;17.70;99.90;;;;;;5072402;28;20025;-79
2021/09/02 03:34:28;;;;;;;22.88;12.40;;;17.50;99.90;;;;;;5072571;28;20480;-81
2021/09/02 03:36:54;;;;;;;20.30;11.95;;;17.40;99.90;;;;;;5073688;28;20056;-80
2021/09/02 03:39:19;;;;;;;21.85;13.02;;;17.50;99.90;;;;;;5072894;28;20029;-80
2021/09/02 03:41:46;;;;;;;23.50;13.48;;;17.60;99.90;;;;;;5072131;28;20083;-81
2021/09/02 03:44:13;;;;;;;26.20;13.70;;;17.60;99.90;;;;;;5073206;28;20108;-81
2021/09/02 03:46:39;;;;;;;21.25;13.02;;;17.70;99.90;;;;;;5073471;28;20027;-81
2021/09/02 03:49:04;;;;;;;25.42;13.32;;;17.70;99.90;;;;;;5071258;28;20033;-80
2021/09/02 03:51:30;;;;;;;20.25;13.48;;;17.70;99.90;;;;;;5075226;28;20027;-81
2021/09/02 03:53:56;;;;;;;23.60;13.88;;;17.70;99.90;;;;;;5072829;28;20028;-80
2021/09/02 03:56:22;;;;;;;27.58;14.05;;;17.80;99.90;;;;;;5072272;28;20492;-79
2021/09/02 03:58:49;;;;;;;26.80;15.15;;;17.80;99.90;;;;;;5072207;28;20029;-80
2021/09/02 04:01:14;;;;;;;20.25;13.05;;;17.80;99.90;;;;;;5071987;28;20021;-80
2021/09/02 04:03:40;;;;;;;25.08;14.40;;;17.80;99.90;;;;;;5054480;28;20033;-81
2021/09/02 04:06:06;;;;;;;27.00;14.57;;;17.80;99.90;;;;;;5072156;28;20021;-81
2021/09/02 04:08:32;;;;;;;30.40;15.15;;;17.80;99.90;;;;;;5070557;28;20028;-80
2021/09/02 04:10:57;;;;;;;22.45;13.68;;;17.80;99.90;;;;;;5072651;28;20070;-81
2021/09/02 04:13:23;;;;;;;23.50;14.52;;;17.80;99.90;;;;;;5072257;28;20024;-81
2021/09/02 04:15:50;;;;;;;22.65;14.93;;;17.80;99.90;;;;;;5072534;28;20031;-81
2021/09/02 04:18:16;;;;;;;19.33;13.73;;;17.70;99.90;;;;;;5072784;28;20056;-81
2021/09/02 04:20:42;;;;;;;24.48;14.23;;;17.80;99.90;;;;;;5072378;28;20071;-77
2021/09/02 04:23:08;;;;;;;25.83;14.63;;;17.70;99.90;;;;;;5071637;28;20564;-80
2021/09/02 04:25:34;;;;;;;28.27;15.40;;;17.80;99.90;;;;;;5071396;28;20035;-76
2021/09/02 04:28:00;;;;;;;33.55;15.93;;;17.80;99.90;;;;;;5070803;28;20035;-76
2021/09/02 04:30:26;;;;;;;27.83;15.93;;;17.80;99.90;;;;;;5053512;28;20090;-81
2021/09/02 04:32:52;;;;;;;26.23;16.25;;;17.80;99.90;;;;;;5072106;28;20028;-81
2021/09/02 04:35:19;;;;;;;28.17;17.17;;;17.80;99.90;;;;;;5072428;28;20081;-80
2021/09/02 04:37:46;;;;;;;27.35;16.08;;;17.80;99.90;;;;;;5072508;28;20033;-81
2021/09/02 04:40:14;;;;;;;31.27;17.13;;;17.70;99.90;;;;;;5071999;28;20066;-81
2021/09/02 04:42:40;;;;;;;35.47;19.13;;;17.80;99.90;;;;;;5071522;28;20036;-80
2021/09/02 04:45:07;;;;;;;25.27;16.23;;;17.80;99.90;;;;;;5071649;28;20029;-80
2021/09/02 04:47:33;;;;;;;29.77;18.52;;;17.70;99.90;;;;;;5070296;28;21938;-81
2021/09/02 04:49:59;;;;;;;35.30;20.23;;;17.70;99.90;;;;;;5072066;28;20032;-80
2021/09/02 04:52:25;;;;;;;34.10;19.13;;;17.60;99.90;;;;;;5072053;28;20037;-80
2021/09/02 04:54:51;;;;;;;37.75;20.17;;;17.60;99.90;;;;;;5065954;28;20169;-80
2021/09/02 04:57:19;;;;;;;35.42;20.05;;;17.60;99.90;;;;;;5071689;28;20028;-79
2021/09/02 04:59:48;;;;;;;33.13;19.40;;;17.50;99.90;;;;;;5072545;28;20472;-80
2021/09/02 05:02:14;;;;;;;35.83;20.65;;;17.50;99.90;;;;;;5071466;28;20024;-79
2021/09/02 05:04:41;;;;;;;35.55;19.20;;;17.50;99.90;;;;;;5071900;28;20098;-81
2021/09/02 05:07:08;;;;;;;33.53;19.88;;;17.50;99.90;;;;;;5072001;28;20017;-79
2021/09/02 05:09:35;;;;;;;27.42;17.75;;;17.40;99.90;;;;;;5070604;28;20428;-80
2021/09/02 05:12:02;;;;;;;33.03;17.83;;;17.40;99.90;;;;;;5054056;28;20066;-80
2021/09/02 05:14:27;;;;;;;29.60;18.40;;;17.30;99.90;;;;;;5051494;28;20879;-80
2021/09/02 05:16:53;;;;;;;30.65;18.70;;;17.30;99.90;;;;;;5067036;28;20103;-81
2021/09/02 05:19:19;;;;;;;33.30;19.05;;;17.30;99.90;;;;;;5070727;28;20036;-81
2021/09/02 05:21:44;;;;;;;34.50;20.65;;;17.30;99.90;;;;;;5071356;28;20086;-81
2021/09/02 05:24:10;;;;;;;34.53;19.90;;;17.30;99.90;;;;;;5053531;28;20044;-81
2021/09/02 05:26:36;;;;;;;34.70;20.38;;;17.20;99.90;;;;;;5053449;28;20051;-80
2021/09/02 05:29:01;;;;;;;42.22;22.52;;;17.20;99.90;;;;;;5070381;28;20024;-79
2021/09/02 05:31:28;;;;;;;37.55;21.50;;;17.20;99.90;;;;;;5052977;28;20549;-81
2021/09/02 05:33:55;;;;;;;29.50;19.25;;;17.10;99.90;;;;;;5071957;28;20032;-80
2021/09/02 05:36:20;;;;;;;34.60;21.55;;;17.10;99.90;;;;;;5071501;28;20354;-80
2021/09/02 05:38:46;;;;;;;37.15;21.70;;;17.10;99.90;;;;;;5070291;28;20104;-81
2021/09/02 05:41:12;;;;;;;35.85;21.02;;;17.10;99.90;;;;;;5072861;28;20082;-79
2021/09/02 05:43:38;;;;;;;33.53;22.05;;;17.10;99.90;;;;;;5075121;28;20037;-80
2021/09/02 05:46:04;;;;;;;33.97;19.75;;;17.10;99.90;;;;;;5074749;28;20025;-81
2021/09/02 05:48:31;;;;;;;42.25;21.30;;;17.00;99.90;;;;;;5073672;28;20040;-81
2021/09/02 05:50:56;;;;;;;36.35;21.42;;;17.00;99.90;;;;;;5075161;28;20055;-80
2021/09/02 05:53:22;;;;;;;39.88;23.52;;;17.00;99.90;;;;;;5074400;28;20052;-79
2021/09/02 05:55:50;;;;;;;40.90;22.20;;;17.00;99.90;;;;;;5074523;28;20384;-81
2021/09/02 05:58:16;;;;;;;39.40;23.08;;;17.00;99.90;;;;;;5075434;28;20039;-72
2021/09/02 06:00:42;;;;;;;42.17;23.80;;;17.00;99.90;;;;;;5074097;28;20075;-80
2021/09/02 06:03:09;;;;;;;40.53;23.60;;;16.90;99.90;;;;;;5074640;28;20029;-80
2021/09/02 06:05:34;;;;;;;40.65;22.30;;;16.90;99.90;;;;;;5073276;28;20025;-80
2021/09/02 06:08:00;;;;;;;39.20;22.67;;;16.90;99.90;;;;;;5073386;28;20485;-80
2021/09/02 06:10:26;;;;;;;40.42;24.33;;;16.90;99.90;;;;;;5080375;28;20032;-80
2021/09/02 06:12:53;;;;;;;37.35;21.98;;;17.00;99.90;;;;;;5075841;28;20082;-81
2021/09/02 06:15:19;;;;;;;44.40;24.42;;;17.00;99.90;;;;;;5074220;28;20021;-80
2021/09/02 06:17:45;;;;;;;38.33;23.42;;;16.90;99.90;;;;;;5073432;28;20028;-80
2021/09/02 06:20:11;;;;;;;40.13;23.85;;;16.90;99.90;;;;;;5065314;28;20020;-81
2021/09/02 06:22:37;;;;;;;40.95;22.85;;;17.00;99.90;;;;;;5074290;28;20029;-79
2021/09/02 06:25:04;;;;;;;39.40;23.00;;;16.90;99.90;;;;;;5073271;28;20032;-79
2021/09/02 06:27:30;;;;;;;45.72;25.48;;;16.90;99.90;;;;;;5072009;28;20867;-81
2021/09/02 06:29:56;;;;;;;41.05;24.42;;;16.90;99.90;;;;;;5074037;28;20679;-81
2021/09/02 06:32:22;;;;;;;36.70;22.92;;;17.00;99.90;;;;;;5073321;28;20381;-81
2021/09/02 06:34:47;;;;;;;37.30;22.15;;;17.00;99.90;;;;;;5086790;28;20035;-80
2021/09/02 06:37:13;;;;;;;34.90;21.55;;;17.00;99.90;;;;;;5071858;28;20021;-80
2021/09/02 06:39:39;;;;;;;36.35;21.80;;;17.10;99.90;;;;;;5074591;28;20461;-80
2021/09/02 06:42:05;;;;;;;35.22;21.60;;;17.10;99.90;;;;;;5074051;28;20017;-80
2021/09/02 06:44:30;;;;;;;37.83;22.85;;;17.10;99.90;;;;;;5056253;28;20480;-80
2021/09/02 06:46:56;;;;;;;32.30;21.05;;;17.20;99.90;;;;;;5074490;28;20016;-81
2021/09/02 06:49:21;;;;;;;38.38;23.42;;;17.20;99.90;;;;;;5072265;28;20031;-81
2021/09/02 06:51:47;;;;;;;42.28;23.92;;;17.30;99.90;;;;;;5073814;28;20027;-81
2021/09/02 06:54:13;;;;;;;35.53;22.05;;;17.30;99.90;;;;;;5055695;28;20025;-81
2021/09/02 06:56:39;;;;;;;36.40;22.33;;;17.40;99.90;;;;;;5069929;28;20397;-82
2021/09/02 06:59:05;;;;;;;37.40;21.77;;;17.40;99.90;;;;;;5073959;28;20350;-82
2021/09/02 07:01:31;;;;;;;32.53;19.15;;;17.40;99.90;;;;;;5073898;28;20032;-82
2021/09/02 07:03:57;;;;;;;31.02;19.38;;;17.40;99.90;;;;;;5072659;28;20040;-81
2021/09/02 07:06:22;;;;;;;33.15;20.17;;;17.50;99.90;;;;;;5054024;28;20480;-81
2021/09/02 07:08:48;;;;;;;33.92;19.38;;;17.60;99.90;;;;;;5068531;28;20032;-82
2021/09/02 07:11:14;;;;;;;29.45;18.92;;;17.70;99.90;;;;;;5055645;28;20032;-81
2021/09/02 07:13:39;;;;;;;36.47;19.30;;;17.70;99.90;;;;;;5073596;28;20024;-79
2021/09/02 07:16:05;;;;;;;33.53;18.38;;;17.70;99.90;;;;;;5072932;28;20508;-78
2021/09/02 07:18:31;;;;;;;24.35;15.18;;;17.70;99.90;;;;;;5049979;28;20039;-79
2021/09/02 07:20:57;;;;;;;23.27;15.50;;;17.70;99.90;;;;;;5068020;28;20020;-77
2021/09/02 07:23:23;;;;;;;30.15;16.70;;;17.70;99.90;;;;;;5065901;28;20085;-78
2021/09/02 07:25:49;;;;;;;31.02;16.38;;;17.70;99.90;;;;;;5064530;28;20099;-80
2021/09/02 07:28:15;;;;;;;26.05;12.68;;;17.70;99.90;;;;;;5069124;28;20716;-79
2021/09/02 07:30:41;;;;;;;22.30;11.05;;;17.70;99.90;;;;;;5067515;28;20024;-80
2021/09/02 07:33:07;;;;;;;16.65;10.38;;;17.70;99.90;;;;;;5072084;28;20016;-79
2021/09/02 07:35:33;;;;;;;19.48;10.90;;;17.70;99.90;;;;;;5072318;28;20430;-80
2021/09/02 07:37:59;;;;;;;24.17;11.13;;;17.80;99.90;;;;;;5067401;28;20033;-80
2021/09/02 07:40:25;;;;;;;18.88;10.48;;;17.90;99.90;;;;;;5053642;28;20028;-78
2021/09/02 07:42:51;;;;;;;19.85;10.88;;;17.90;99.90;;;;;;5068499;28;20029;-80
2021/09/02 07:45:17;;;;;;;23.60;11.48;;;17.90;99.90;;;;;;5070352;28;20029;-78
2021/09/02 07:47:43;;;;;;;23.52;11.65;;;18.00;99.90;;;;;;5063042;28;20530;-80
2021/09/02 07:50:09;;;;;;;20.17;11.13;;;18.00;99.90;;;;;;5066640;28;20036;-79
2021/09/02 07:52:36;;;;;;;18.60;10.15;;;18.00;99.90;;;;;;5071967;28;20012;-79
2021/09/02 07:55:03;;;;;;;19.40;11.50;;;18.10;99.90;;;;;;5064170;28;20024;-79
2021/09/02 07:57:29;;;;;;;25.13;11.25;;;18.10;99.90;;;;;;5069916;28;20037;-79
2021/09/02 07:59:55;;;;;;;26.65;11.43;;;18.20;99.90;;;;;;5066074;28;20031;-79
2021/09/02 08:02:21;;;;;;;19.15;9.52;;;18.20;99.90;;;;;;5071717;28;20461;-79
2021/09/02 08:04:47;;;;;;;22.65;11.32;;;18.30;99.90;;;;;;5071865;28;20029;-80
2021/09/02 08:07:13;;;;;;;23.02;11.65;;;18.30;99.90;;;;;;5058205;28;20031;-79
2021/09/02 08:09:38;;;;;;;26.83;12.18;;;18.40;99.90;;;;;;5066740;28;20473;-79
2021/09/02 08:12:04;;;;;;;21.50;12.88;;;18.40;99.90;;;;;;5064124;28;20369;-79
2021/09/02 08:14:30;;;;;;;25.48;13.98;;;18.50;99.90;;;;;;5069717;28;20020;-78
2021/09/02 08:16:55;;;;;;;23.38;12.00;;;18.50;99.90;;;;;;5046222;28;20032;-81
2021/09/02 08:19:21;;;;;;;25.55;13.65;;;18.50;99.90;;;;;;5070373;28;20044;-78
2021/09/02 08:21:47;;;;;;;23.42;14.32;;;18.50;99.90;;;;;;5064643;28;20757;-80
2021/09/02 08:24:14;;;;;;;22.23;14.32;;;18.50;99.90;;;;;;5053037;28;20040;-80
2021/09/02 08:26:40;;;;;;;26.45;13.88;;;18.60;99.90;;;;;;5069530;28;20085;-80
2021/09/02 08:29:06;;;;;;;20.88;12.60;;;18.70;99.90;;;;;;5073608;28;20021;-77
2021/09/02 08:31:32;;;;;;;24.83;13.57;;;18.80;99.90;;;;;;5075727;28;20091;-80
2021/09/02 08:33:57;;;;;;;26.63;13.73;;;18.80;99.90;;;;;;5071746;28;20021;-81
2021/09/02 08:36:23;;;;;;;22.63;13.25;;;18.90;99.90;;;;;;5069965;28;20526;-79
2021/09/02 08:38:49;;;;;;;25.58;14.63;;;18.90;99.90;;;;;;5071585;28;20028;-78
2021/09/02 08:41:16;;;;;;;24.10;14.73;;;19.00;99.90;;;;;;5067181;28;20031;-78
2021/09/02 08:43:43;;;;;;;25.73;15.00;;;18.90;99.90;;;;;;5053967;28;20093;-80
2021/09/02 08:46:09;;;;;;;25.38;13.38;;;19.10;99.90;;;;;;5068634;28;20020;-79
2021/09/02 08:48:38;;;;;;;28.77;15.73;;;19.20;99.90;;;;;;5071370;28;20036;-78
2021/09/02 08:51:05;;;;;;;24.48;13.05;;;19.20;99.90;;;;;;5059002;28;20167;-79
2021/09/02 08:53:31;;;;;;;22.50;13.90;;;19.30;99.90;;;;;;5071516;28;20056;-79
2021/09/02 08:55:57;;;;;;;24.08;12.85;;;19.40;99.90;;;;;;5069691;28;20598;-81
2021/09/02 08:58:23;;;;;;;27.77;15.82;;;19.50;99.90;;;;;;5065966;28;20380;-79
2021/09/02 09:00:48;;;;;;;22.40;14.63;;;19.40;99.90;;;;;;5060639;28;20496;-81
2021/09/02 09:03:17;;;;;;;27.50;15.35;;;19.60;99.90;;;;;;5074704;28;20055;-82
2021/09/02 09:05:43;;;;;;;24.38;13.77;;;19.60;99.90;;;;;;5051381;28;20031;-78
2021/09/02 09:08:11;;;;;;;26.15;13.57;;;19.70;99.90;;;;;;5069598;28;20473;-79
2021/09/02 09:10:39;;;;;;;19.73;12.85;;;19.70;99.90;;;;;;5062364;28;20029;-80
2021/09/02 09:13:10;;;;;;;20.67;11.57;;;19.80;99.90;;;;;;5065780;28;20047;-78
2021/09/02 09:15:39;;;;;;;22.30;12.73;;;19.90;99.90;;;;;;5047405;28;20136;-78
2021/09/02 09:18:21;;;;;;;20.42;12.45;;;20.10;99.90;;;;;;5071970;28;20044;-78
2021/09/02 09:21:14;;;;;;;19.67;11.40;;;20.10;99.90;;;;;;5071329;28;20056;-80
2021/09/02 09:24:07;;;;;;;20.25;12.73;;;20.20;99.90;;;;;;5057546;28;20209;-79
2021/09/02 09:26:34;;;;;;;20.40;13.10;;;20.20;99.90;;;;;;5071338;28;20033;-80
2021/09/02 09:29:02;;;;;;;24.95;13.00;;;20.30;99.90;;;;;;5068275;28;20690;-79
2021/09/02 09:31:34;;;;;;;20.83;12.50;;;20.50;99.90;;;;;;5065255;28;20028;-79
2021/09/02 09:34:03;;;;;;;22.92;12.32;;;20.60;99.90;;;;;;5071070;28;20125;-81
2021/09/02 09:36:30;;;;;;;17.13;10.73;;;20.80;99.90;;;;;;5066822;28;20021;-80
2021/09/02 09:39:10;;;;;;;20.63;12.20;;;21.00;99.90;;;;;;5051570;28;20047;-80
2021/09/02 09:41:44;;;;;;;26.70;14.15;;;21.10;99.90;;;;;;5050798;28;20500;-78
2021/09/02 09:44:26;;;;;;;21.27;13.68;;;21.00;99.90;;;;;;5066929;28;20028;-80
2021/09/02 09:47:17;;;;;;;24.83;14.02;;;21.10;99.90;;;;;;5077750;28;20100;-80
2021/09/02 09:49:43;;;;;;;23.65;12.48;;;21.00;99.90;;;;;;5071221;28;20048;-80
2021/09/02 09:52:42;;;;;;;24.45;12.05;;;21.20;99.90;;;;;;5060541;28;20040;-77
2021/09/02 09:55:12;;;;;;;19.70;12.02;;;21.40;99.90;;;;;;5070431;28;20039;-79
2021/09/02 09:57:40;;;;;;;18.35;11.93;;;21.50;99.90;;;;;;5074241;28;20660;-80
2021/09/02 10:00:10;;;;;;;18.35;11.07;;;21.70;99.90;;;;;;5073836;28;20537;-79
2021/09/02 10:02:38;;;;;;;19.60;10.98;;;21.60;99.90;;;;;;5067019;28;20051;-78
2021/09/02 10:05:05;;;;;;;17.67;11.60;;;21.70;99.90;;;;;;5071948;28;20021;-80
2021/09/02 10:07:35;;;;;;;18.75;10.95;;;21.90;99.90;;;;;;5073466;28;20032;-80
2021/09/02 10:10:01;;;;;;;19.80;10.85;;;22.00;99.90;;;;;;5074438;28;20020;-79
2021/09/02 10:12:34;;;;;;;19.05;11.20;;;22.00;99.90;;;;;;5074226;28;20035;-78
2021/09/02 10:15:01;;;;;;;;;;;21.90;99.90;;;;;;5074583;28;20488;-80
2021/09/02 10:17:27;;;;;;;20.33;11.48;;;21.90;99.90;;;;;;5058337;28;20319;-79
2021/09/02 10:19:53;;;;;;;16.45;10.65;;;21.90;99.90;;;;;;5073220;28;20402;-82
2021/09/02 10:22:19;;;;;;;17.02;10.23;;;22.10;99.90;;;;;;5071446;28;20380;-80
2021/09/02 10:24:45;;;;;;;17.95;9.60;;;22.00;99.90;;;;;;5073663;28;20044;-80
2021/09/02 10:27:17;;;;;;;17.98;10.70;;;22.10;99.90;;;;;;5054204;28;20025;-81
2021/09/02 10:29:46;;;;;;;16.85;10.73;;;22.40;99.90;;;;;;5065769;28;20032;-79
2021/09/02 10:32:24;;;;;;;18.60;11.63;;;22.30;99.90;;;;;;5072882;28;20120;-79
2021/09/02 10:35:14;;;;;;;20.95;11.70;;;22.40;99.90;;;;;;5072403;28;20032;-79
2021/09/02 10:37:41;;;;;;;14.00;8.48;;;22.70;99.90;;;;;;5070105;28;20070;-80
2021/09/02 10:40:16;;;;;;;18.23;10.25;;;22.60;99.90;;;;;;5051981;28;20075;-81
2021/09/02 10:42:47;;;;;;;14.65;9.23;;;22.30;99.90;;;;;;5064073;28;20024;-79
2021/09/02 10:45:25;;;;;;;18.63;9.07;;;22.30;99.90;;;;;;5071892;28;20028;-79
2021/09/02 10:48:17;;;;;;;16.10;9.80;;;22.00;99.90;;;;;;5063989;28;20095;-78
2021/09/02 10:50:44;;;;;;;14.43;9.63;;;22.10;99.90;;;;;;5063827;28;20111;-79
2021/09/02 10:53:16;;;;;;;17.20;8.82;;;22.30;99.90;;;;;;5072508;28;20113;-80
2021/09/02 10:55:54;;;;;;;15.45;8.73;;;22.40;99.90;;;;;;5073611;28;20016;-80
2021/09/02 10:58:40;;;;;;;17.08;9.68;;;22.50;99.90;;;;;;5079691;28;20090;-80
2021/09/02 11:01:25;;;;;;;15.77;11.05;;;22.60;99.90;;;;;;5069801;28;20171;-80
2021/09/02 11:03:52;;;;;;;17.85;11.07;;;22.90;99.90;;;;;;5070774;28;20044;-80
2021/09/02 11:06:18;;;;;;;17.17;11.15;;;23.10;99.90;;;;;;5050070;28;20024;-80
2021/09/02 11:08:44;;;;;;;20.63;11.73;;;22.90;99.90;;;;;;5065958;28;20032;-77
2021/09/02 11:11:16;;;;;;;15.43;11.48;;;23.00;99.90;;;;;;5069534;28;20031;-80
2021/09/02 11:13:46;;;;;;;15.75;10.95;;;23.20;99.90;;;;;;5067923;28;20055;-81
2021/09/02 11:16:17;;;;;;;16.40;10.07;;;23.00;99.90;;;;;;5070845;28;20469;-78
2021/09/02 11:18:46;;;;;;;17.90;10.32;;;22.80;99.90;;;;;;5072448;28;20093;-79
2021/09/02 11:21:16;;;;;;;20.58;10.63;;;22.80;99.90;;;;;;5066878;28;20021;-79
2021/09/02 11:23:45;;;;;;;17.65;11.90;;;22.70;99.90;;;;;;5072434;28;20051;-77
2021/09/02 11:26:32;;;;;;;23.63;10.73;;;22.80;99.90;;;;;;5063141;28;20020;-79
2021/09/02 11:28:59;;;;;;;15.73;11.52;;;23.10;99.90;;;;;;5060983;28;20037;-77
2021/09/02 11:31:25;;;;;;;16.83;10.38;;;23.10;99.90;;;;;;5072423;28;20401;-78
2021/09/02 11:33:52;;;;;;;15.70;9.95;;;22.80;99.90;;;;;;5072078;28;20024;-79
2021/09/02 11:36:20;;;;;;;13.57;10.15;;;22.90;99.90;;;;;;5072211;28;20473;-75
2021/09/02 11:38:46;;;;;;;16.70;10.65;;;23.20;99.90;;;;;;5069190;28;20021;-80
2021/09/02 11:41:20;;;;;;;15.27;11.10;;;23.50;99.90;;;;;;5050972;28;20025;-76
2021/09/02 11:43:47;;;;;;;17.42;10.45;;;23.50;99.90;;;;;;5053642;28;20029;-78
2021/09/02 11:46:14;;;;;;;17.38;11.30;;;23.90;99.90;;;;;;5051545;28;20047;-81
2021/09/02 11:48:49;;;;;;;17.95;11.65;;;23.90;99.90;;;;;;5065271;28;20036;-82
2021/09/02 11:51:20;;;;;;;17.38;9.70;;;23.80;99.90;;;;;;5072460;28;20017;-81
2021/09/02 11:53:48;;;;;;;16.25;10.25;;;23.90;99.90;;;;;;5068967;28;20085;-80
2021/09/02 11:56:21;;;;;;;15.38;10.15;;;23.90;99.90;;;;;;5061985;28;20067;-83
2021/09/02 11:58:57;;;;;;;16.20;10.52;;;24.00;99.90;;;;;;5072281;28;20036;-83
2021/09/02 12:01:24;;;;;;;15.57;10.07;;;23.80;99.90;;;;;;5070173;28;20389;-80
2021/09/02 12:03:50;;;;;;;17.90;11.20;;;23.80;99.90;;;;;;5071222;28;20024;-82
2021/09/02 12:06:29;;;;;;;15.27;9.95;;;23.90;99.90;;;;;;5072320;28;20051;-84
2021/09/02 12:09:02;;;;;;;14.85;9.73;;;24.10;99.90;;;;;;5059990;28;20031;-79
2021/09/02 12:11:28;;;;;;;13.40;9.23;;;24.20;99.90;;;;;;5061305;28;20037;-83
2021/09/02 12:13:56;;;;;;;16.15;10.55;;;24.20;99.90;;;;;;5068345;28;20032;-78
2021/09/02 12:16:30;;;;;;;15.95;9.77;;;23.90;99.90;;;;;;5071786;28;20020;-83
2021/09/02 12:19:00;;;;;;;15.05;9.48;;;23.60;99.90;;;;;;5048553;28;20017;-77
2021/09/02 12:21:31;;;;;;;16.13;9.38;;;23.80;99.90;;;;;;5070048;28;20052;-76
2021/09/02 12:23:59;;;;;;;19.17;10.35;;;24.00;99.90;;;;;;5050126;28;20215;-76
2021/09/02 12:26:43;;;;;;;15.98;10.48;;;24.10;99.90;;;;;;5070967;28;20028;-78
2021/09/02 12:29:20;;;;;;;15.65;10.10;;;24.20;99.90;;;;;;5069412;28;20024;-79
2021/09/02 12:31:47;;;;;;;15.63;10.23;;;24.10;99.90;;;;;;5067216;28;20487;-79